sensor_id;sensor_type;location;lat;lon;timestamp;pressure;altitude;pressure_sealevel;temperature;humidity
54194;BME280;40102;50.906;6.972;2023-02-28T00:00:29;102261.41;;;4.54;48.93
54194;BME280;40102;50.906;6.972;2023-02-28T00:02:54;102274.59;;;4.64;49.06
54194;BME280;40102;50.906;6.972;2023-02-28T00:05:21;102261.41;;;4.53;48.95
54194;BME280;40102;50.906;6.972;2023-02-28T00:07:48;102263.19;;;4.54;49.12
54194;BME280;40102;50.906;6.972;2023-02-28T00:10:18;102277.25;;;4.62;48.97
54194;BME280;40102;50.906;6.972;2023-02-28T00:12:46;102271.03;;;4.66;48.75
54194;BME280;40102;50.906;6.972;2023-02-28T00:15:12;102278.16;;;4.61;48.88
54194;BME280;40102;50.906;6.972;2023-02-28T00:17:37;102264.06;;;4.51;49.01
54194;BME280;40102;50.906;6.972;2023-02-28T00:20:04;102267.63;;;4.47;49.11
54194;BME280;40102;50.906;6.972;2023-02-28T00:22:33;102258.84;;;4.41;49.34
54194;BME280;40102;50.906;6.972;2023-02-28T00:24:58;102277.34;;;4.48;49.06
54194;BME280;40102;50.906;6.972;2023-02-28T00:27:24;102264.13;;;4.42;49.38
54194;BME280;40102;50.906;6.972;2023-02-28T00:29:49;102274.69;;;4.48;49.32
54194;BME280;40102;50.906;6.972;2023-02-28T00:32:14;102266.75;;;4.45;49.45
54194;BME280;40102;50.906;6.972;2023-02-28T00:34:40;102268.59;;;4.36;49.47
54194;BME280;40102;50.906;6.972;2023-02-28T00:37:06;102265.06;;;4.31;49.52
54194;BME280;40102;50.906;6.972;2023-02-28T00:39:33;102267.75;;;4.28;49.47
54194;BME280;40102;50.906;6.972;2023-02-28T00:41:59;102266.88;;;4.27;49.82
54194;BME280;40102;50.906;6.972;2023-02-28T00:44:24;102285.38;;;4.32;49.77
54194;BME280;40102;50.906;6.972;2023-02-28T00:46:50;102273.06;;;4.23;49.76
54194;BME280;40102;50.906;6.972;2023-02-28T00:49:17;102273.94;;;4.23;50.01
54194;BME280;40102;50.906;6.972;2023-02-28T00:51:42;102266.00;;;4.20;49.74
54194;BME280;40102;50.906;6.972;2023-02-28T00:54:07;102273.97;;;4.19;49.75
54194;BME280;40102;50.906;6.972;2023-02-28T00:56:33;102284.53;;;4.28;49.42
54194;BME280;40102;50.906;6.972;2023-02-28T00:58:58;102284.53;;;4.25;49.78
54194;BME280;40102;50.906;6.972;2023-02-28T01:01:23;102289.84;;;4.23;49.50
54194;BME280;40102;50.906;6.972;2023-02-28T01:03:49;102281.09;;;4.06;50.00
54194;BME280;40102;50.906;6.972;2023-02-28T01:06:15;102295.22;;;3.99;49.91
54194;BME280;40102;50.906;6.972;2023-02-28T01:08:41;102274.13;;;3.81;50.53
54194;BME280;40102;50.906;6.972;2023-02-28T01:11:09;102280.28;;;3.83;50.67
54194;BME280;40102;50.906;6.972;2023-02-28T01:13:34;102276.75;;;3.87;50.60
54194;BME280;40102;50.906;6.972;2023-02-28T01:16:00;102285.53;;;4.01;50.84
54194;BME280;40102;50.906;6.972;2023-02-28T01:18:25;102282.88;;;4.03;50.32
54194;BME280;40102;50.906;6.972;2023-02-28T01:20:51;102275.81;;;4.03;50.22
54194;BME280;40102;50.906;6.972;2023-02-28T01:23:18;102290.75;;;4.19;49.93
54194;BME280;40102;50.906;6.972;2023-02-28T01:25:44;102288.97;;;4.17;49.92
54194;BME280;40102;50.906;6.972;2023-02-28T01:28:10;102284.56;;;4.16;50.06
54194;BME280;40102;50.906;6.972;2023-02-28T01:30:35;102275.75;;;4.15;50.06
54194;BME280;40102;50.906;6.972;2023-02-28T01:33:01;102280.16;;;4.13;50.05
54194;BME280;40102;50.906;6.972;2023-02-28T01:35:26;102285.44;;;4.16;49.91
54194;BME280;40102;50.906;6.972;2023-02-28T01:37:52;102282.81;;;4.13;50.04
54194;BME280;40102;50.906;6.972;2023-02-28T01:40:17;102270.47;;;4.08;49.90
54194;BME280;40102;50.906;6.972;2023-02-28T01:42:43;102266.97;;;4.06;49.92
54194;BME280;40102;50.906;6.972;2023-02-28T01:47:38;102262.53;;;4.09;50.00
54194;BME280;40102;50.906;6.972;2023-02-28T01:50:10;102268.72;;;4.05;50.33
54194;BME280;40102;50.906;6.972;2023-02-28T01:52:37;102266.09;;;4.05;50.19
54194;BME280;40102;50.906;6.972;2023-02-28T01:55:04;102281.97;;;4.08;50.49
54194;BME280;40102;50.906;6.972;2023-02-28T01:57:38;102259.03;;;4.00;50.24
54194;BME280;40102;50.906;6.972;2023-02-28T02:00:18;102264.34;;;3.97;50.26
54194;BME280;40102;50.906;6.972;2023-02-28T02:02:47;102256.41;;;3.95;49.93
54194;BME280;40102;50.906;6.972;2023-02-28T02:05:21;102266.09;;;4.01;50.09
54194;BME280;40102;50.906;6.972;2023-02-28T02:07:50;102267.00;;;3.98;50.01
54194;BME280;40102;50.906;6.972;2023-02-28T02:10:20;102255.53;;;3.96;50.24
54194;BME280;40102;50.906;6.972;2023-02-28T02:15:54;102246.72;;;3.94;50.50
54194;BME280;40102;50.906;6.972;2023-02-28T02:18:50;102247.59;;;3.96;50.24
54194;BME280;40102;50.906;6.972;2023-02-28T02:26:58;102243.19;;;3.95;50.10
54194;BME280;40102;50.906;6.972;2023-02-28T02:29:35;102256.41;;;4.01;50.00
54194;BME280;40102;50.906;6.972;2023-02-28T02:35:37;102235.25;;;3.92;50.35
54194;BME280;40102;50.906;6.972;2023-02-28T02:38:29;102245.84;;;3.89;50.43
54194;BME280;40102;50.906;6.972;2023-02-28T02:43:52;102240.59;;;3.78;50.69
54194;BME280;40102;50.906;6.972;2023-02-28T02:46:20;102254.69;;;3.83;50.43
54194;BME280;40102;50.906;6.972;2023-02-28T02:48:46;102245.91;;;3.72;50.79
54194;BME280;40102;50.906;6.972;2023-02-28T02:51:15;102237.09;;;3.72;50.93
54194;BME280;40102;50.906;6.972;2023-02-28T02:53:55;102260.00;;;3.83;50.85
54194;BME280;40102;50.906;6.972;2023-02-28T02:56:25;102250.31;;;3.75;50.61
54194;BME280;40102;50.906;6.972;2023-02-28T02:58:54;102251.19;;;3.80;50.70
54194;BME280;40102;50.906;6.972;2023-02-28T03:01:22;102248.53;;;3.77;50.69
54194;BME280;40102;50.906;6.972;2023-02-28T03:03:57;102245.00;;;3.79;50.76
54194;BME280;40102;50.906;6.972;2023-02-28T03:06:24;102244.13;;;3.80;50.68
54194;BME280;40102;50.906;6.972;2023-02-28T03:08:49;102243.25;;;3.81;50.52
54194;BME280;40102;50.906;6.972;2023-02-28T03:11:15;102253.81;;;3.80;50.59
54194;BME280;40102;50.906;6.972;2023-02-28T03:13:44;102249.44;;;3.76;50.67
54194;BME280;40102;50.906;6.972;2023-02-28T03:21:27;102245.03;;;3.75;50.47
54194;BME280;40102;50.906;6.972;2023-02-28T03:24:34;102241.50;;;3.74;50.42
54194;BME280;40102;50.906;6.972;2023-02-28T03:27:24;102245.03;;;3.73;50.29
54194;BME280;40102;50.906;6.972;2023-02-28T03:30:04;102240.63;;;3.74;50.19
54194;BME280;40102;50.906;6.972;2023-02-28T03:32:38;102239.75;;;3.72;50.12
54194;BME280;40102;50.906;6.972;2023-02-28T03:35:11;102218.59;;;3.66;49.86
54194;BME280;40102;50.906;6.972;2023-02-28T03:37:41;102233.59;;;3.67;49.97
54194;BME280;40102;50.906;6.972;2023-02-28T03:40:11;102223.91;;;3.53;49.77
54194;BME280;40102;50.906;6.972;2023-02-28T03:42:41;102228.31;;;3.54;49.78
54194;BME280;40102;50.906;6.972;2023-02-28T03:45:13;102240.66;;;3.57;49.80
54194;BME280;40102;50.906;6.972;2023-02-28T03:52:49;102227.50;;;3.34;49.37
54194;BME280;40102;50.906;6.972;2023-02-28T03:55:16;102231.00;;;3.39;49.40
54194;BME280;40102;50.906;6.972;2023-02-28T04:00:20;102240.72;;;3.34;49.05
54194;BME280;40102;50.906;6.972;2023-02-28T04:02:49;102237.19;;;3.29;48.83
54194;BME280;40102;50.906;6.972;2023-02-28T04:05:19;102228.38;;;3.30;48.86
54194;BME280;40102;50.906;6.972;2023-02-28T04:07:44;102242.47;;;3.34;48.76
54194;BME280;40102;50.906;6.972;2023-02-28T04:10:11;102242.50;;;3.29;48.57
54194;BME280;40102;50.906;6.972;2023-02-28T04:12:36;102240.72;;;3.27;48.32
54194;BME280;40102;50.906;6.972;2023-02-28T04:15:02;102249.53;;;3.38;48.46
54194;BME280;40102;50.906;6.972;2023-02-28T04:17:27;102244.25;;;3.35;48.33
54194;BME280;40102;50.906;6.972;2023-02-28T04:19:53;102248.66;;;3.37;48.25
54194;BME280;40102;50.906;6.972;2023-02-28T04:22:21;102237.19;;;3.35;48.11
54194;BME280;40102;50.906;6.972;2023-02-28T04:24:46;102249.53;;;3.39;48.16
54194;BME280;40102;50.906;6.972;2023-02-28T04:27:12;102246.00;;;3.40;48.10
54194;BME280;40102;50.906;6.972;2023-02-28T04:29:37;102242.47;;;3.35;48.07
54194;BME280;40102;50.906;6.972;2023-02-28T04:32:04;102239.84;;;3.32;48.22
54194;BME280;40102;50.906;6.972;2023-02-28T04:34:30;102253.06;;;3.41;48.24
54194;BME280;40102;50.906;6.972;2023-02-28T04:36:56;102252.19;;;3.35;48.07
54194;BME280;40102;50.906;6.972;2023-02-28T04:39:23;102244.25;;;3.33;48.19
54194;BME280;40102;50.906;6.972;2023-02-28T04:41:49;102256.59;;;3.39;48.40
54194;BME280;40102;50.906;6.972;2023-02-28T04:44:15;102257.47;;;3.30;48.33
54194;BME280;40102;50.906;6.972;2023-02-28T04:46:41;102248.66;;;3.23;48.69
54194;BME280;40102;50.906;6.972;2023-02-28T04:49:06;102250.44;;;3.20;48.94
54194;BME280;40102;50.906;6.972;2023-02-28T04:51:33;102261.91;;;3.20;48.99
54194;BME280;40102;50.906;6.972;2023-02-28T04:53:58;102265.41;;;3.24;49.09
54194;BME280;40102;50.906;6.972;2023-02-28T04:56:23;102261.00;;;3.17;49.01
54194;BME280;40102;50.906;6.972;2023-02-28T04:58:49;102258.38;;;3.20;49.20
54194;BME280;40102;50.906;6.972;2023-02-28T05:03:46;102277.75;;;3.16;49.44
54194;BME280;40102;50.906;6.972;2023-02-28T05:06:12;102263.66;;;3.06;49.41
54194;BME280;40102;50.906;6.972;2023-02-28T05:08:38;102276.88;;;3.08;49.43
54194;BME280;40102;50.906;6.972;2023-02-28T05:11:06;102286.56;;;3.15;49.61
54194;BME280;40102;50.906;6.972;2023-02-28T05:13:32;102268.06;;;3.04;49.92
54194;BME280;40102;50.906;6.972;2023-02-28T05:15:57;102265.44;;;3.04;49.64
54194;BME280;40102;50.906;6.972;2023-02-28T05:18:22;102283.94;;;3.16;49.70
54194;BME280;40102;50.906;6.972;2023-02-28T05:20:48;102265.44;;;3.12;49.75
54194;BME280;40102;50.906;6.972;2023-02-28T05:23:14;102268.94;;;3.14;49.37
54194;BME280;40102;50.906;6.972;2023-02-28T05:25:41;102284.81;;;3.23;49.18
54194;BME280;40102;50.906;6.972;2023-02-28T05:28:07;102280.41;;;3.28;49.37
54194;BME280;40102;50.906;6.972;2023-02-28T05:30:33;102263.66;;;3.21;49.13
54194;BME280;40102;50.906;6.972;2023-02-28T05:32:58;102269.84;;;3.11;49.29
54194;BME280;40102;50.906;6.972;2023-02-28T05:35:24;102268.06;;;3.09;49.14
54194;BME280;40102;50.906;6.972;2023-02-28T05:37:50;102257.50;;;2.90;49.58
54194;BME280;40102;50.906;6.972;2023-02-28T05:40:16;102261.03;;;2.83;49.58
54194;BME280;40102;50.906;6.972;2023-02-28T05:42:42;102263.66;;;2.83;49.85
54194;BME280;40102;50.906;6.972;2023-02-28T05:45:08;102267.19;;;2.87;49.54
54194;BME280;40102;50.906;6.972;2023-02-28T05:47:34;102270.72;;;2.93;49.45
54194;BME280;40102;50.906;6.972;2023-02-28T05:49:59;102268.06;;;2.72;49.31
54194;BME280;40102;50.906;6.972;2023-02-28T05:52:26;102282.13;;;2.67;49.99
54194;BME280;40102;50.906;6.972;2023-02-28T05:54:51;102266.28;;;2.57;50.04
54194;BME280;40102;50.906;6.972;2023-02-28T05:57:16;102283.91;;;2.72;50.07
54194;BME280;40102;50.906;6.972;2023-02-28T05:59:42;102275.09;;;2.63;49.41
54194;BME280;40102;50.906;6.972;2023-02-28T06:02:12;102272.44;;;2.61;49.82
54194;BME280;40102;50.906;6.972;2023-02-28T06:04:38;102279.50;;;2.70;49.78
54194;BME280;40102;50.906;6.972;2023-02-28T06:07:03;102276.88;;;2.73;49.68
54194;BME280;40102;50.906;6.972;2023-02-28T06:09:29;102263.66;;;2.76;49.18
54194;BME280;40102;50.906;6.972;2023-02-28T06:11:59;102267.19;;;2.78;49.26
54194;BME280;40102;50.906;6.972;2023-02-28T06:14:24;102282.16;;;2.92;49.11
54194;BME280;40102;50.906;6.972;2023-02-28T06:16:50;102285.69;;;2.96;48.92
54194;BME280;40102;50.906;6.972;2023-02-28T06:19:15;102284.81;;;2.96;48.66
54194;BME280;40102;50.906;6.972;2023-02-28T06:21:42;102277.75;;;2.91;48.69
54194;BME280;40102;50.906;6.972;2023-02-28T06:24:07;102283.94;;;2.92;48.64
54194;BME280;40102;50.906;6.972;2023-02-28T06:26:33;102290.09;;;2.99;48.75
54194;BME280;40102;50.906;6.972;2023-02-28T06:28:59;102290.09;;;2.92;48.68
54194;BME280;40102;50.906;6.972;2023-02-28T06:31:26;102281.28;;;2.92;48.69
54194;BME280;40102;50.906;6.972;2023-02-28T06:33:52;102299.78;;;2.98;48.61
54194;BME280;40102;50.906;6.972;2023-02-28T06:36:17;102291.84;;;2.93;48.49
54194;BME280;40102;50.906;6.972;2023-02-28T06:38:43;102298.03;;;2.96;48.64
54194;BME280;40102;50.906;6.972;2023-02-28T06:41:09;102294.50;;;2.95;49.90
54194;BME280;40102;50.906;6.972;2023-02-28T06:43:38;102313.78;;;3.95;79.05
54194;BME280;40102;50.906;6.972;2023-02-28T06:46:05;102303.69;;;4.74;66.48
54194;BME280;40102;50.906;6.972;2023-02-28T06:48:31;102311.06;;;5.41;60.51
54194;BME280;40102;50.906;6.972;2023-02-28T06:51:05;102317.34;;;5.34;49.92
54194;BME280;40102;50.906;6.972;2023-02-28T06:53:30;102307.97;;;4.92;47.18
54194;BME280;40102;50.906;6.972;2023-02-28T06:55:56;102329.41;;;4.59;46.42
54194;BME280;40102;50.906;6.972;2023-02-28T06:58:21;102333.09;;;4.21;46.89
54194;BME280;40102;50.906;6.972;2023-02-28T07:00:50;102315.59;;;3.83;47.33
54194;BME280;40102;50.906;6.972;2023-02-28T07:03:16;102316.50;;;3.63;47.67
54194;BME280;40102;50.906;6.972;2023-02-28T07:05:42;102325.34;;;3.49;47.99
54194;BME280;40102;50.906;6.972;2023-02-28T07:08:08;102343.00;;;3.41;48.21
54194;BME280;40102;50.906;6.972;2023-02-28T07:10:33;102336.81;;;3.29;48.37
54194;BME280;40102;50.906;6.972;2023-02-28T07:13:00;102324.47;;;3.17;48.54
54194;BME280;40102;50.906;6.972;2023-02-28T07:15:25;102332.41;;;3.08;48.30
54194;BME280;40102;50.906;6.972;2023-02-28T07:17:51;102329.75;;;3.00;48.67
54194;BME280;40102;50.906;6.972;2023-02-28T07:20:16;102334.16;;;2.93;48.53
54194;BME280;40102;50.906;6.972;2023-02-28T07:22:42;102323.56;;;2.89;48.45
54194;BME280;40102;50.906;6.972;2023-02-28T07:25:08;102336.78;;;2.87;48.66
54194;BME280;40102;50.906;6.972;2023-02-28T07:27:33;102338.53;;;2.88;48.73
54194;BME280;40102;50.906;6.972;2023-02-28T07:29:59;102324.44;;;2.82;48.46
54194;BME280;40102;50.906;6.972;2023-02-28T07:32:27;102341.19;;;2.91;48.40
54194;BME280;40102;50.906;6.972;2023-02-28T07:34:52;102340.31;;;2.83;48.10
54194;BME280;40102;50.906;6.972;2023-02-28T07:37:18;102333.22;;;2.73;47.82
54194;BME280;40102;50.906;6.972;2023-02-28T07:39:43;102314.72;;;2.59;48.48
54194;BME280;40102;50.906;6.972;2023-02-28T07:42:09;102335.00;;;2.71;48.27
54194;BME280;40102;50.906;6.972;2023-02-28T07:44:37;102327.94;;;2.67;47.92
54194;BME280;40102;50.906;6.972;2023-02-28T07:47:09;102336.75;;;2.66;47.71
54194;BME280;40102;50.906;6.972;2023-02-28T07:49:37;102330.56;;;2.64;47.73
54194;BME280;40102;50.906;6.972;2023-02-28T07:52:05;102328.81;;;2.66;47.48
54194;BME280;40102;50.906;6.972;2023-02-28T07:54:31;102339.41;;;2.72;47.45
54194;BME280;40102;50.906;6.972;2023-02-28T07:56:56;102332.34;;;2.64;47.19
54194;BME280;40102;50.906;6.972;2023-02-28T07:59:21;102328.78;;;2.58;47.41
54194;BME280;40102;50.906;6.972;2023-02-28T08:01:47;102327.91;;;2.59;47.17
54194;BME280;40102;50.906;6.972;2023-02-28T08:04:15;102337.63;;;2.71;46.40
54194;BME280;40102;50.906;6.972;2023-02-28T08:06:41;102334.13;;;2.72;46.61
54194;BME280;40102;50.906;6.972;2023-02-28T08:09:06;102331.47;;;2.78;46.21
54194;BME280;40102;50.906;6.972;2023-02-28T08:11:32;102327.97;;;2.79;46.51
54194;BME280;40102;50.906;6.972;2023-02-28T08:13:57;102339.44;;;2.93;45.86
54194;BME280;40102;50.906;6.972;2023-02-28T08:16:23;102325.31;;;2.85;45.46
54194;BME280;40102;50.906;6.972;2023-02-28T08:18:52;102342.09;;;2.95;45.38
54194;BME280;40102;50.906;6.972;2023-02-28T08:21:18;102343.84;;;2.99;45.60
54194;BME280;40102;50.906;6.972;2023-02-28T08:23:49;102347.38;;;3.03;45.01
54194;BME280;40102;50.906;6.972;2023-02-28T08:26:17;102335.91;;;2.90;44.88
54194;BME280;40102;50.906;6.972;2023-02-28T08:28:42;102338.56;;;2.96;45.55
54194;BME280;40102;50.906;6.972;2023-02-28T08:31:11;102344.75;;;3.15;45.67
54194;BME280;40102;50.906;6.972;2023-02-28T08:33:38;102339.47;;;3.18;45.70
54194;BME280;40102;50.906;6.972;2023-02-28T08:36:04;102347.41;;;3.30;44.62
54194;BME280;40102;50.906;6.972;2023-02-28T08:38:30;102355.34;;;3.29;43.29
54194;BME280;40102;50.906;6.972;2023-02-28T08:41:00;102352.69;;;3.30;43.95
54194;BME280;40102;50.906;6.972;2023-02-28T08:43:26;102353.56;;;3.37;44.37
54194;BME280;40102;50.906;6.972;2023-02-28T08:45:52;102355.34;;;3.44;43.48
54194;BME280;40102;50.906;6.972;2023-02-28T08:48:18;102341.22;;;3.23;42.42
54194;BME280;40102;50.906;6.972;2023-02-28T08:50:43;102346.50;;;3.28;43.31
54194;BME280;40102;50.906;6.972;2023-02-28T08:53:08;102352.69;;;3.30;43.62
54194;BME280;40102;50.906;6.972;2023-02-28T08:55:34;102362.38;;;3.39;42.95
54194;BME280;40102;50.906;6.972;2023-02-28T08:57:59;102345.63;;;3.26;42.54
54194;BME280;40102;50.906;6.972;2023-02-28T09:00:26;102338.59;;;3.28;43.27
54194;BME280;40102;50.906;6.972;2023-02-28T09:02:52;102337.69;;;3.35;43.54
54194;BME280;40102;50.906;6.972;2023-02-28T09:05:17;102350.03;;;3.44;42.82
54194;BME280;40102;50.906;6.972;2023-02-28T09:07:43;102351.81;;;3.46;42.36
54194;BME280;40102;50.906;6.972;2023-02-28T09:10:09;102350.03;;;3.54;42.81
54194;BME280;40102;50.906;6.972;2023-02-28T09:12:35;102333.28;;;3.52;40.62
54194;BME280;40102;50.906;6.972;2023-02-28T09:15:00;102335.03;;;3.50;40.45
54194;BME280;40102;50.906;6.972;2023-02-28T09:17:26;102329.75;;;3.37;40.80
54194;BME280;40102;50.906;6.972;2023-02-28T09:19:51;102350.91;;;3.50;41.46
54194;BME280;40102;50.906;6.972;2023-02-28T09:22:16;102348.28;;;3.55;41.21
54194;BME280;40102;50.906;6.972;2023-02-28T09:24:42;102337.69;;;3.38;39.88
54194;BME280;40102;50.906;6.972;2023-02-28T09:27:07;102328.88;;;3.27;40.40
54194;BME280;40102;50.906;6.972;2023-02-28T09:29:34;102335.94;;;3.34;40.89
54194;BME280;40102;50.906;6.972;2023-02-28T09:31:59;102331.53;;;3.35;40.78
54194;BME280;40102;50.906;6.972;2023-02-28T09:34:26;102327.13;;;3.35;40.17
54194;BME280;40102;50.906;6.972;2023-02-28T09:36:51;102342.09;;;3.45;41.00
54194;BME280;40102;50.906;6.972;2023-02-28T09:39:20;102335.94;;;3.52;40.66
54194;BME280;40102;50.906;6.972;2023-02-28T09:41:49;102327.09;;;3.50;40.89
54194;BME280;40102;50.906;6.972;2023-02-28T09:46:50;102325.34;;;3.54;40.31
54194;BME280;40102;50.906;6.972;2023-02-28T09:49:29;102330.63;;;3.46;39.55
54194;BME280;40102;50.906;6.972;2023-02-28T09:52:04;102343.00;;;3.44;40.02
54194;BME280;40102;50.906;6.972;2023-02-28T09:54:31;102324.47;;;3.40;40.51
54194;BME280;40102;50.906;6.972;2023-02-28T10:04:54;102342.94;;;3.75;40.92
54194;BME280;40102;50.906;6.972;2023-02-28T10:07:36;102332.34;;;3.79;40.16
54194;BME280;40102;50.906;6.972;2023-02-28T10:10:19;102327.94;;;3.81;39.94
54194;BME280;40102;50.906;6.972;2023-02-28T10:12:47;102320.88;;;3.82;39.63
54194;BME280;40102;50.906;6.972;2023-02-28T10:15:15;102327.94;;;3.86;39.81
54194;BME280;40102;50.906;6.972;2023-02-28T10:17:44;102324.41;;;3.87;39.83
54194;BME280;40102;50.906;6.972;2023-02-28T10:20:19;102321.75;;;3.87;39.65
54194;BME280;40102;50.906;6.972;2023-02-28T10:23:12;102314.69;;;3.83;39.91
54194;BME280;40102;50.906;6.972;2023-02-28T10:25:40;102318.22;;;3.85;39.81
54194;BME280;40102;50.906;6.972;2023-02-28T10:30:36;102311.16;;;3.87;40.03
54194;BME280;40102;50.906;6.972;2023-02-28T10:33:02;102311.16;;;3.87;40.09
54194;BME280;40102;50.906;6.972;2023-02-28T10:35:27;102315.56;;;3.91;40.03
54194;BME280;40102;50.906;6.972;2023-02-28T10:37:57;102311.13;;;3.99;40.16
54194;BME280;40102;50.906;6.972;2023-02-28T10:45:29;102306.66;;;4.16;39.54
54194;BME280;40102;50.906;6.972;2023-02-28T10:48:22;102304.81;;;4.28;39.63
54194;BME280;40102;50.906;6.972;2023-02-28T10:50:52;102304.84;;;4.26;39.79
54194;BME280;40102;50.906;6.972;2023-02-28T10:58:32;102300.28;;;4.51;39.77
54194;BME280;40102;50.906;6.972;2023-02-28T11:01:13;102291.53;;;4.40;38.89
54194;BME280;40102;50.906;6.972;2023-02-28T11:03:39;102293.31;;;4.33;39.00
54194;BME280;40102;50.906;6.972;2023-02-28T11:06:18;102289.78;;;4.33;39.46
54194;BME280;40102;50.906;6.972;2023-02-28T11:09:23;102296.78;;;4.46;39.41
54194;BME280;40102;50.906;6.972;2023-02-28T11:11:52;102272.94;;;4.44;39.51
54194;BME280;40102;50.906;6.972;2023-02-28T11:14:25;102272.00;;;4.54;39.41
54194;BME280;40102;50.906;6.972;2023-02-28T11:16:54;102286.03;;;4.70;39.32
54194;BME280;40102;50.906;6.972;2023-02-28T11:19:40;102275.47;;;4.67;38.95
54194;BME280;40102;50.906;6.972;2023-02-28T11:22:09;102273.66;;;4.71;39.06
54194;BME280;40102;50.906;6.972;2023-02-28T11:24:44;102267.50;;;4.69;39.07
54194;BME280;40102;50.906;6.972;2023-02-28T11:29:58;102272.66;;;4.88;38.52
54194;BME280;40102;50.906;6.972;2023-02-28T11:32:25;102281.44;;;4.97;38.80
54194;BME280;40102;50.906;6.972;2023-02-28T11:35:03;102276.06;;;5.03;38.76
54194;BME280;40102;50.906;6.972;2023-02-28T11:37:30;102260.16;;;5.03;37.65
54194;BME280;40102;50.906;6.972;2023-02-28T11:39:56;102262.69;;;5.18;38.21
54194;BME280;40102;50.906;6.972;2023-02-28T11:45:08;102270.34;;;5.45;38.60
54194;BME280;40102;50.906;6.972;2023-02-28T11:53:04;102271.81;;;5.75;37.93
54194;BME280;40102;50.906;6.972;2023-02-28T11:55:42;102282.28;;;5.88;37.65
54194;BME280;40102;50.906;6.972;2023-02-28T12:08:49;102271.22;;;6.26;36.62
54194;BME280;40102;50.906;6.972;2023-02-28T12:19:30;102267.22;;;6.57;36.05
54194;BME280;40102;50.906;6.972;2023-02-28T12:25:05;102249.09;;;6.83;35.82
54194;BME280;40102;50.906;6.972;2023-02-28T12:27:41;102236.84;;;6.73;35.63
54194;BME280;40102;50.906;6.972;2023-02-28T12:33:12;102241.34;;;7.22;36.00
54194;BME280;40102;50.906;6.972;2023-02-28T12:38:22;102219.94;;;7.74;35.17
54194;BME280;40102;50.906;6.972;2023-02-28T12:40:54;102231.09;;;7.93;33.81
54194;BME280;40102;50.906;6.972;2023-02-28T12:43:21;102198.91;;;8.04;33.97
54194;BME280;40102;50.906;6.972;2023-02-28T12:45:58;102224.19;;;8.25;33.59
54194;BME280;40102;50.906;6.972;2023-02-28T12:48:29;102212.63;;;8.26;33.52
54194;BME280;40102;50.906;6.972;2023-02-28T12:50:56;102219.16;;;8.53;34.32
54194;BME280;40102;50.906;6.972;2023-02-28T12:53:32;102225.66;;;8.78;33.70
54194;BME280;40102;50.906;6.972;2023-02-28T12:58:39;102212.50;;;9.06;33.99
54194;BME280;40102;50.906;6.972;2023-02-28T13:01:21;102197.91;;;9.19;33.06
54194;BME280;40102;50.906;6.972;2023-02-28T13:09:35;102189.13;;;9.79;33.89
54194;BME280;40102;50.906;6.972;2023-02-28T13:12:00;102189.59;;;9.93;33.77
54194;BME280;40102;50.906;6.972;2023-02-28T13:22:43;102193.59;;;10.37;32.80
54194;BME280;40102;50.906;6.972;2023-02-28T13:27:48;102181.78;;;10.97;33.06
54194;BME280;40102;50.906;6.972;2023-02-28T13:35:47;102168.28;;;11.50;30.66
54194;BME280;40102;50.906;6.972;2023-02-28T13:38:22;102172.72;;;11.51;30.46
54194;BME280;40102;50.906;6.972;2023-02-28T13:40:51;102181.94;;;11.67;31.04
54194;BME280;40102;50.906;6.972;2023-02-28T13:43:17;102164.16;;;11.42;28.48
54194;BME280;40102;50.906;6.972;2023-02-28T13:46:06;102166.91;;;10.36;29.64
54194;BME280;40102;50.906;6.972;2023-02-28T13:48:33;102175.38;;;9.91;30.89
54194;BME280;40102;50.906;6.972;2023-02-28T13:50:58;102164.81;;;9.57;31.49
54194;BME280;40102;50.906;6.972;2023-02-28T13:53:35;102166.94;;;9.45;32.22
54194;BME280;40102;50.906;6.972;2023-02-28T13:56:16;102181.38;;;9.70;32.51
54194;BME280;40102;50.906;6.972;2023-02-28T13:58:58;102159.66;;;10.10;31.47
54194;BME280;40102;50.906;6.972;2023-02-28T14:06:57;102157.81;;;11.19;29.65
54194;BME280;40102;50.906;6.972;2023-02-28T14:09:32;102145.88;;;11.28;29.67
54194;BME280;40102;50.906;6.972;2023-02-28T14:15:18;102150.88;;;11.14;29.78
54194;BME280;40102;50.906;6.972;2023-02-28T14:17:56;102155.72;;;11.52;30.99
54194;BME280;40102;50.906;6.972;2023-02-28T14:20:27;102136.81;;;12.04;30.95
54194;BME280;40102;50.906;6.972;2023-02-28T14:22:58;102140.13;;;12.54;30.63
54194;BME280;40102;50.906;6.972;2023-02-28T14:25:53;102131.38;;;12.49;28.31
54194;BME280;40102;50.906;6.972;2023-02-28T14:31:24;102135.66;;;11.87;30.43
54194;BME280;40102;50.906;6.972;2023-02-28T14:34:16;102144.44;;;12.14;29.85
54194;BME280;40102;50.906;6.972;2023-02-28T14:36:49;102141.00;;;12.54;29.76
54194;BME280;40102;50.906;6.972;2023-02-28T14:39:20;102133.53;;;13.03;29.18
54194;BME280;40102;50.906;6.972;2023-02-28T14:41:47;102130.69;;;13.28;28.83
54194;BME280;40102;50.906;6.972;2023-02-28T14:44:19;102120.19;;;13.42;28.14
54194;BME280;40102;50.906;6.972;2023-02-28T14:46:48;102128.16;;;13.64;27.81
54194;BME280;40102;50.906;6.972;2023-02-28T14:49:29;102127.81;;;13.90;27.55
54194;BME280;40102;50.906;6.972;2023-02-28T14:54:52;102132.75;;;14.00;26.58
54194;BME280;40102;50.906;6.972;2023-02-28T14:57:30;102125.84;;;13.94;26.85
54194;BME280;40102;50.906;6.972;2023-02-28T15:00:00;102123.28;;;13.91;27.48
54194;BME280;40102;50.906;6.972;2023-02-28T15:02:30;102128.72;;;13.71;26.43
54194;BME280;40102;50.906;6.972;2023-02-28T15:05:00;102125.59;;;13.61;26.66
54194;BME280;40102;50.906;6.972;2023-02-28T15:07:25;102115.44;;;13.28;26.73
54194;BME280;40102;50.906;6.972;2023-02-28T15:12:57;102108.28;;;13.07;26.90
54194;BME280;40102;50.906;6.972;2023-02-28T15:15:59;102118.88;;;12.70;26.45
54194;BME280;40102;50.906;6.972;2023-02-28T15:18:31;102121.28;;;12.12;27.55
54194;BME280;40102;50.906;6.972;2023-02-28T15:21:02;102107.66;;;11.48;28.88
54194;BME280;40102;50.906;6.972;2023-02-28T15:23:30;102106.03;;;11.44;28.87
54194;BME280;40102;50.906;6.972;2023-02-28T15:25:59;102113.31;;;11.63;28.14